< < Back
Terminal Aerodrome Forecast


Current Version              Previous Versions:   1  2  3  4  5  6  7  8  9  

Terminal Aerodrome Forecast

302
FTUS44 KBMX 010457 AAD
TAFANB
TAF AMD
KANB 010457Z 0105/0124 18004KT P6SM BKN250
     FM011100 VRB03KT P6SM VCSH BKN015
     FM011400 20005KT P6SM SHRA VCTS BKN040CB=

Latest METAR

663
SAUS70 KWBC 011200 RRL
MTRANB
METAR KANB 011153Z AUTO 00000KT 8SM FEW026 BKN060 BKN080 21/18 A3000 RMK
AO2 SLP151 T02060183 10206 20178 52013


USA.gov is the U.S. government's official web portal to all federal, state and local government web resources and services.